Time;durP1;ratioP1;P1;durP2;ratioP2;P2;SDS_P1;SDS_P2;PMS_P1;PMS_P2;Temp;Humidity;BMP_temperature;BMP_pressure;BME280_temperature;BME280_humidity;BME280_pressure;Samples;Min_cycle;Max_cycle;Signal;HPM_P1;HPM_P2
2022/04/26 05:01:25;;;;;;;15.40;11.70;;;9.90;99.90;;;;;;5501047;23;20414;-79
2022/04/26 05:03:53;;;;;;;13.88;11.20;;;9.70;99.90;;;;;;5015133;28;20320;-80
2022/04/26 05:06:20;;;;;;;14.50;10.98;;;9.70;99.90;;;;;;5015013;28;20054;-79
2022/04/26 05:08:47;;;;;;;14.57;10.80;;;9.90;99.90;;;;;;5014738;28;20056;-78
2022/04/26 05:11:16;;;;;;;17.38;12.23;;;10.00;99.90;;;;;;5015219;28;20042;-79
2022/04/26 05:13:43;;;;;;;16.40;11.65;;;10.00;99.90;;;;;;5014381;28;20081;-79
2022/04/26 05:16:11;;;;;;;17.67;13.48;;;10.00;99.90;;;;;;5014871;28;20057;-80
2022/04/26 05:18:40;;;;;;;17.83;13.10;;;9.80;99.90;;;;;;5015019;28;20042;-79
2022/04/26 05:21:13;;;;;;;18.23;13.80;;;9.70;99.90;;;;;;5017815;28;20077;-81
2022/04/26 05:26:25;;;;;;;16.33;12.65;;;9.70;99.90;;;;;;5014838;28;20056;-78
2022/04/26 05:28:52;;;;;;;18.15;13.20;;;9.70;99.90;;;;;;5014768;28;20042;-80
2022/04/26 05:31:19;;;;;;;15.82;11.90;;;9.70;99.90;;;;;;5014692;28;20486;-80
2022/04/26 05:33:48;;;;;;;15.13;11.82;;;9.80;99.90;;;;;;5014577;28;20132;-78
2022/04/26 05:36:15;;;;;;;15.88;11.30;;;9.90;99.90;;;;;;5014514;28;20494;-79
2022/04/26 05:38:42;;;;;;;15.73;11.63;;;9.90;99.90;;;;;;5014886;28;20053;-79
2022/04/26 05:41:09;;;;;;;17.08;12.85;;;9.90;99.90;;;;;;5014469;28;20133;-79
2022/04/26 05:43:36;;;;;;;16.48;11.57;;;9.90;99.90;;;;;;5014745;28;20056;-78
2022/04/26 05:46:03;;;;;;;14.13;11.23;;;9.90;99.90;;;;;;5014768;28;20089;-78
2022/04/26 05:48:30;;;;;;;15.40;11.90;;;9.90;99.90;;;;;;5014738;28;20140;-78
2022/04/26 05:50:58;;;;;;;15.63;11.48;;;9.70;99.90;;;;;;5014654;28;20132;-78
2022/04/26 05:53:26;;;;;;;14.30;11.05;;;9.80;99.90;;;;;;5014685;28;20056;-79
2022/04/26 05:55:53;;;;;;;16.00;11.27;;;9.90;99.90;;;;;;5014551;28;20060;-79
2022/04/26 05:58:20;;;;;;;14.43;10.98;;;9.90;99.90;;;;;;5014671;28;20132;-79
2022/04/26 06:00:47;;;;;;;12.95;10.18;;;9.90;99.90;;;;;;5014744;28;20618;-80
2022/04/26 06:03:14;;;;;;;14.38;10.93;;;9.80;99.90;;;;;;5014558;28;20053;-80
2022/04/26 06:05:41;;;;;;;14.35;10.50;;;9.80;99.90;;;;;;5014795;28;20104;-79
2022/04/26 06:08:10;;;;;;;14.23;10.98;;;9.80;99.90;;;;;;5013753;28;20050;-78
2022/04/26 06:10:39;;;;;;;12.82;9.85;;;9.80;99.90;;;;;;5014103;28;20050;-79
2022/04/26 06:13:08;;;;;;;12.52;10.10;;;9.80;99.90;;;;;;5014210;28;20080;-78
2022/04/26 06:15:35;;;;;;;12.75;9.43;;;9.80;99.90;;;;;;5014026;28;20128;-79
2022/04/26 06:18:02;;;;;;;12.48;9.02;;;9.90;99.90;;;;;;5014229;28;20053;-78
2022/04/26 06:20:29;;;;;;;13.90;10.05;;;9.90;99.90;;;;;;5013985;28;20046;-80
2022/04/26 06:22:56;;;;;;;11.00;8.02;;;9.80;99.90;;;;;;5012733;28;20050;-80
2022/04/26 06:25:25;;;;;;;12.05;9.18;;;9.90;99.90;;;;;;4993894;28;20145;-78
2022/04/26 06:27:52;;;;;;;10.98;8.75;;;10.00;99.90;;;;;;4994593;28;20050;-78
2022/04/26 06:30:22;;;;;;;12.63;8.98;;;10.00;99.90;;;;;;5004002;28;20049;-79
2022/04/26 06:32:49;;;;;;;12.63;9.50;;;10.00;99.90;;;;;;5014211;28;20567;-77
2022/04/26 06:35:16;;;;;;;11.63;8.40;;;9.90;99.90;;;;;;5013964;28;20129;-78
2022/04/26 06:37:43;;;;;;;13.40;9.20;;;10.00;99.90;;;;;;5013602;28;20133;-78
2022/04/26 06:40:11;;;;;;;10.73;7.85;;;9.90;99.90;;;;;;5013846;28;20440;-80
2022/04/26 06:42:40;;;;;;;11.10;8.20;;;10.10;99.90;;;;;;5014074;28;20161;-78
2022/04/26 06:45:08;;;;;;;11.20;8.20;;;10.20;99.90;;;;;;5013961;28;20069;-78
2022/04/26 06:47:35;;;;;;;11.77;8.63;;;10.10;99.90;;;;;;5013997;28;20125;-79
2022/04/26 06:50:03;;;;;;;12.05;9.13;;;10.00;99.90;;;;;;5013968;28;20057;-81
2022/04/26 06:52:31;;;;;;;11.88;8.68;;;9.90;99.90;;;;;;5013807;28;20100;-79
2022/04/26 06:54:59;;;;;;;11.20;8.02;;;9.90;99.90;;;;;;5013925;28;20046;-79
2022/04/26 06:57:26;;;;;;;10.48;7.53;;;10.00;99.90;;;;;;5013000;28;20513;-79
2022/04/26 06:59:54;;;;;;;10.18;7.80;;;10.10;99.90;;;;;;5013515;28;20081;-79
2022/04/26 07:02:25;;;;;;;11.00;7.90;;;10.10;99.90;;;;;;5013372;28;20096;-79
2022/04/26 07:04:52;;;;;;;10.88;7.93;;;10.10;99.90;;;;;;5013481;28;20549;-79
2022/04/26 07:07:19;;;;;;;10.15;7.78;;;10.20;99.90;;;;;;5013653;28;20097;-80
2022/04/26 07:09:46;;;;;;;10.90;7.57;;;10.20;99.90;;;;;;5013461;28;20450;-77
2022/04/26 07:12:13;;;;;;;11.27;7.88;;;10.30;99.90;;;;;;5013652;28;20061;-78
2022/04/26 07:14:41;;;;;;;10.77;7.60;;;10.20;99.90;;;;;;5013582;28;20112;-78
2022/04/26 07:17:10;;;;;;;11.15;8.15;;;10.10;99.90;;;;;;5013689;28;20058;-79
2022/04/26 07:19:37;;;;;;;11.95;8.23;;;10.00;99.90;;;;;;5014050;28;20115;-79
2022/04/26 07:22:06;;;;;;;14.02;8.35;;;10.00;99.90;;;;;;5017297;28;20103;-79
2022/04/26 07:24:37;;;;;;;9.63;7.45;;;9.90;99.90;;;;;;5018195;28;20049;-80
2022/04/26 07:27:04;;;;;;;11.40;7.68;;;10.00;99.90;;;;;;5018481;28;20058;-77
2022/04/26 07:29:31;;;;;;;8.70;6.90;;;10.20;99.90;;;;;;5019502;28;20480;-79
2022/04/26 07:31:58;;;;;;;9.13;6.65;;;10.40;99.90;;;;;;5021135;28;20062;-79
2022/04/26 07:34:26;;;;;;;9.65;6.90;;;10.50;99.90;;;;;;5031511;28;20046;-77
2022/04/26 07:36:59;;;;;;;9.48;6.72;;;10.50;99.90;;;;;;5027602;28;20160;-80
2022/04/26 07:39:29;;;;;;;8.02;6.32;;;10.60;99.90;;;;;;5028478;28;20395;-78
2022/04/26 07:41:59;;;;;;;10.02;7.35;;;10.60;99.90;;;;;;5025978;28;20101;-77
2022/04/26 07:44:27;;;;;;;8.88;6.63;;;10.50;99.90;;;;;;5022469;28;20045;-80
2022/04/26 07:46:55;;;;;;;8.57;6.70;;;10.10;99.90;;;;;;5016580;28;20057;-77
2022/04/26 07:49:49;;;;;;;9.57;7.07;;;10.00;99.90;;;;;;5016839;28;20084;-78
2022/04/26 07:52:21;;;;;;;9.80;7.13;;;10.20;99.90;;;;;;5016670;28;20502;-80
2022/04/26 07:54:49;;;;;;;8.48;6.00;;;10.20;99.90;;;;;;5016811;28;20497;-79
2022/04/26 07:57:18;;;;;;;7.72;6.03;;;10.20;99.90;;;;;;5016959;28;20054;-79
2022/04/26 07:59:45;;;;;;;7.60;5.78;;;10.20;99.90;;;;;;5016758;28;20050;-78
2022/04/26 08:02:15;;;;;;;7.22;5.30;;;10.20;99.90;;;;;;5001894;28;20062;-80
2022/04/26 08:04:44;;;;;;;7.70;5.75;;;10.20;99.90;;;;;;4996363;28;20050;-78
2022/04/26 08:07:11;;;;;;;6.80;5.03;;;10.30;99.90;;;;;;4996164;28;20534;-81
2022/04/26 08:09:41;;;;;;;7.15;5.35;;;10.50;99.90;;;;;;4997156;28;20466;-80
2022/04/26 08:12:08;;;;;;;7.70;6.07;;;10.50;99.90;;;;;;4996938;28;20447;-78
2022/04/26 08:14:37;;;;;;;8.63;6.63;;;10.30;99.90;;;;;;4997154;28;20418;-79
2022/04/26 08:17:07;;;;;;;9.00;6.35;;;10.30;99.90;;;;;;4997316;28;20059;-77
2022/04/26 08:19:36;;;;;;;8.07;6.22;;;10.30;99.90;;;;;;4997182;28;20536;-78
2022/04/26 08:22:05;;;;;;;8.30;6.28;;;10.40;99.90;;;;;;4996954;28;20046;-79
2022/04/26 08:27:26;;;;;;;8.23;6.72;;;10.60;99.90;;;;;;4997130;28;20419;-78
2022/04/26 08:29:54;;;;;;;9.13;6.45;;;10.50;99.90;;;;;;4996769;28;20050;-79
2022/04/26 08:32:23;;;;;;;8.80;6.57;;;10.60;99.90;;;;;;4995434;28;20046;-80
2022/04/26 08:34:51;;;;;;;8.77;6.32;;;10.60;99.90;;;;;;4997100;28;20221;-79
2022/04/26 08:37:20;;;;;;;8.05;5.97;;;10.50;99.90;;;;;;4996612;28;20057;-80
2022/04/26 08:39:48;;;;;;;8.70;6.25;;;10.70;99.90;;;;;;4996044;28;20396;-79
2022/04/26 08:42:18;;;;;;;7.75;5.50;;;10.70;99.90;;;;;;4993296;28;20463;-79
2022/04/26 08:44:50;;;;;;;7.25;5.65;;;10.90;99.90;;;;;;4993792;28;20153;-78
2022/04/26 08:52:51;;;;;;;12.60;8.05;;;11.00;99.90;;;;;;4993678;28;20130;-78
2022/04/26 08:55:19;;;;;;;10.88;7.57;;;10.80;99.90;;;;;;4993600;28;20054;-79
2022/04/26 08:57:47;;;;;;;10.32;7.43;;;10.90;99.90;;;;;;4995828;28;20054;-79
2022/04/26 09:00:16;;;;;;;10.32;7.00;;;11.00;99.90;;;;;;4996019;28;20050;-77
2022/04/26 09:02:43;;;;;;;9.60;7.32;;;11.00;99.90;;;;;;4993649;28;20058;-78
2022/04/26 09:05:13;;;;;;;8.00;6.35;;;11.00;99.90;;;;;;4993720;28;20113;-80
2022/04/26 09:07:40;;;;;;;9.60;6.82;;;11.10;99.90;;;;;;4993183;28;20077;-80
2022/04/26 09:10:12;;;;;;;9.13;6.72;;;11.20;99.90;;;;;;4993285;28;20090;-77
2022/04/26 09:13:06;;;;;;;9.27;6.28;;;11.20;99.90;;;;;;4993680;28;20070;-79
2022/04/26 09:15:40;;;;;;;7.63;5.82;;;11.10;99.90;;;;;;4993213;28;20050;-80
2022/04/26 09:18:24;;;;;;;8.63;6.20;;;11.10;99.90;;;;;;4992581;28;20138;-79
2022/04/26 09:20:55;;;;;;;8.15;5.88;;;11.10;99.90;;;;;;4993148;28;20464;-79
2022/04/26 09:23:23;;;;;;;7.75;5.85;;;11.10;99.90;;;;;;4992632;28;20089;-77
2022/04/26 09:25:56;;;;;;;10.23;5.90;;;11.20;99.90;;;;;;4992819;28;20065;-77
2022/04/26 09:28:27;;;;;;;7.47;5.13;;;11.30;99.90;;;;;;4992820;28;20157;-79
2022/04/26 09:30:55;;;;;;;7.15;5.53;;;11.30;99.90;;;;;;4992570;28;20071;-77
2022/04/26 09:33:36;;;;;;;8.20;5.47;;;11.20;99.90;;;;;;4992514;28;20492;-76
2022/04/26 09:36:06;;;;;;;7.47;5.25;;;11.20;99.90;;;;;;4992533;28;20054;-77
2022/04/26 09:38:34;;;;;;;7.40;4.88;;;11.30;99.90;;;;;;4992267;28;20407;-77
2022/04/26 09:41:09;;;;;;;7.50;5.15;;;11.50;99.90;;;;;;4990771;28;20389;-79
2022/04/26 09:43:37;;;;;;;7.55;5.10;;;11.60;99.90;;;;;;4991495;28;20106;-79
2022/04/26 09:46:06;;;;;;;7.88;5.85;;;11.60;99.90;;;;;;4992551;28;20149;-79
2022/04/26 09:48:36;;;;;;;6.60;4.68;;;11.50;99.90;;;;;;4974895;28;20046;-78
2022/04/26 09:51:03;;;;;;;6.95;4.68;;;11.60;99.90;;;;;;4992507;28;20117;-79
2022/04/26 09:53:32;;;;;;;6.72;4.72;;;11.60;99.90;;;;;;4993425;28;20053;-79
2022/04/26 09:56:01;;;;;;;6.60;4.90;;;11.70;99.90;;;;;;4993897;28;20053;-78
2022/04/26 09:58:31;;;;;;;7.65;4.53;;;11.70;99.90;;;;;;4991551;28;20049;-80
2022/04/26 10:01:04;;;;;;;6.32;4.55;;;11.70;99.90;;;;;;4990960;28;20141;-77
2022/04/26 10:03:33;;;;;;;7.43;4.20;;;11.90;99.90;;;;;;4992259;28;20050;-77
2022/04/26 10:06:02;;;;;;;6.30;4.30;;;12.00;99.90;;;;;;4991767;28;20563;-79
2022/04/26 10:08:32;;;;;;;5.97;4.28;;;12.00;99.90;;;;;;4991976;28;20094;-78
2022/04/26 10:11:00;;;;;;;8.90;4.32;;;12.10;99.90;;;;;;4992277;28;20062;-79
2022/04/26 10:13:35;;;;;;;8.85;4.60;;;11.90;99.90;;;;;;4992100;28;20061;-80
2022/04/26 10:16:04;;;;;;;;;;;11.80;99.90;;;;;;4993769;28;20117;-79
2022/04/26 10:18:35;;;;;;;6.82;4.53;;;11.80;99.90;;;;;;4991978;28;19932;-79
2022/04/26 10:21:04;;;;;;;6.30;4.40;;;11.80;99.90;;;;;;4995865;28;20050;-79
2022/04/26 10:24:14;;;;;;;6.13;4.30;;;11.90;99.90;;;;;;5003564;28;20050;-79
2022/04/26 10:26:42;;;;;;;8.25;4.70;;;11.90;99.90;;;;;;4996816;28;20058;-79
2022/04/26 10:29:23;;;;;;;6.20;4.15;;;12.00;99.90;;;;;;5007004;28;20058;-79
2022/04/26 10:31:58;;;;;;;7.88;4.47;;;12.00;99.90;;;;;;5007720;28;20094;-79
2022/04/26 10:34:31;;;;;;;7.90;4.25;;;12.00;99.90;;;;;;5005917;28;20125;-79
2022/04/26 10:37:01;;;;;;;6.95;4.22;;;12.00;99.90;;;;;;5005856;28;20054;-80
2022/04/26 10:39:35;;;;;;;5.20;3.58;;;12.20;99.90;;;;;;5004307;28;20049;-78
2022/04/26 10:42:25;;;;;;;12.32;7.53;;;12.40;99.90;;;;;;4990188;28;20552;-79
2022/04/26 10:45:08;;;;;;;7.97;4.88;;;12.10;99.90;;;;;;4997738;28;20053;-80
2022/04/26 10:47:35;;;;;;;7.15;4.20;;;12.30;99.90;;;;;;5002216;28;20096;-79
2022/04/26 10:50:09;;;;;;;5.75;3.42;;;12.70;99.90;;;;;;4996987;28;20056;-80
2022/04/26 10:52:40;;;;;;;5.43;3.72;;;12.90;99.90;;;;;;4992194;28;20053;-77
2022/04/26 10:55:12;;;;;;;5.50;3.45;;;12.90;99.90;;;;;;4991924;28;20078;-78
2022/04/26 10:57:42;;;;;;;6.40;3.72;;;13.00;99.70;;;;;;4992137;28;20145;-81
2022/04/26 11:00:16;;;;;;;5.90;3.67;;;12.80;99.90;;;;;;4973687;28;20464;-79
2022/04/26 11:02:48;;;;;;;5.77;3.90;;;12.50;99.90;;;;;;4986632;28;20069;-78
2022/04/26 11:05:18;;;;;;;5.97;3.78;;;12.50;99.90;;;;;;4992639;28;20141;-76
2022/04/26 11:07:47;;;;;;;5.28;3.63;;;12.50;99.90;;;;;;4991640;28;20547;-78
2022/04/26 11:10:17;;;;;;;6.03;3.80;;;12.30;99.90;;;;;;4991880;28;20548;-78
2022/04/26 11:12:44;;;;;;;5.78;3.58;;;12.40;99.90;;;;;;4991021;28;20054;-79
2022/04/26 11:15:16;;;;;;;5.47;3.05;;;12.50;99.90;;;;;;4989377;28;20065;-78
2022/04/26 11:17:46;;;;;;;5.38;3.30;;;12.50;99.90;;;;;;4990158;28;20054;-76
2022/04/26 11:20:16;;;;;;;6.13;3.42;;;12.40;99.90;;;;;;4991217;28;20133;-79
2022/04/26 11:22:48;;;;;;;5.25;3.30;;;12.40;99.90;;;;;;4991123;28;20133;-79
2022/04/26 11:28:06;;;;;;;5.55;3.40;;;12.50;99.20;;;;;;4991273;28;20419;-81
2022/04/26 11:30:38;;;;;;;5.50;3.35;;;12.50;99.90;;;;;;4987840;28;20145;-78
2022/04/26 11:33:08;;;;;;;7.07;3.97;;;12.50;99.90;;;;;;4990564;28;20079;-78
2022/04/26 11:35:39;;;;;;;5.50;3.50;;;12.60;99.60;;;;;;4990713;28;20057;-78
2022/04/26 11:38:09;;;;;;;6.15;3.30;;;12.50;99.70;;;;;;4991081;28;20080;-81
2022/04/26 11:40:41;;;;;;;6.38;3.25;;;12.60;99.90;;;;;;4989711;28;20061;-78
2022/04/26 11:43:11;;;;;;;5.50;3.13;;;12.60;99.20;;;;;;4990240;28;20144;-79
2022/04/26 11:45:45;;;;;;;5.32;3.10;;;12.90;97.60;;;;;;4990557;28;20081;-80
2022/04/26 11:48:14;;;;;;;7.13;2.95;;;13.10;96.10;;;;;;4991049;28;20081;-77
2022/04/26 11:50:45;;;;;;;10.18;3.33;;;13.30;96.00;;;;;;4990334;28;20050;-79
2022/04/26 11:53:22;;;;;;;5.60;2.75;;;13.10;92.90;;;;;;4991043;28;20483;-79
2022/04/26 11:55:54;;;;;;;7.82;3.42;;;13.00;93.80;;;;;;4990167;28;20058;-80
2022/04/26 11:58:23;;;;;;;4.47;2.58;;;13.00;94.20;;;;;;4992504;28;20129;-79
2022/04/26 12:01:02;;;;;;;5.53;2.25;;;12.50;92.00;;;;;;4992861;28;20054;-79
2022/04/26 12:03:32;;;;;;;4.22;2.03;;;11.50;95.70;;;;;;4990916;28;20058;-79
2022/04/26 12:06:03;;;;;;;4.53;2.20;;;10.80;98.60;;;;;;4993411;28;20050;-79
2022/04/26 12:08:36;;;;;;;4.75;2.30;;;10.40;99.90;;;;;;5003225;28;20554;-79
2022/04/26 12:11:20;;;;;;;5.95;2.30;;;10.50;99.90;;;;;;4994048;28;20054;-77
2022/04/26 12:14:00;;;;;;;5.18;2.50;;;10.40;99.90;;;;;;4994005;28;20046;-79
2022/04/26 12:16:30;;;;;;;5.05;2.70;;;10.20;99.90;;;;;;4993945;28;20052;-78
2022/04/26 12:19:00;;;;;;;6.28;2.28;;;10.40;99.90;;;;;;4993693;28;20077;-78
2022/04/26 12:21:43;;;;;;;6.13;2.38;;;10.40;99.90;;;;;;4993418;28;20081;-79
2022/04/26 12:24:15;;;;;;;3.80;2.23;;;10.30;99.90;;;;;;4990707;28;20117;-78
2022/04/26 12:26:56;;;;;;;4.70;2.03;;;10.70;98.00;;;;;;4993758;28;20297;-77
2022/04/26 12:29:24;;;;;;;4.35;2.05;;;10.90;98.60;;;;;;4993047;28;20084;-79
2022/04/26 12:31:53;;;;;;;5.40;2.40;;;10.90;98.30;;;;;;4993324;28;20046;-80
2022/04/26 12:34:23;;;;;;;4.05;2.03;;;10.70;99.40;;;;;;4993465;28;20050;-78
2022/04/26 12:37:02;;;;;;;4.72;2.58;;;10.60;99.90;;;;;;4994175;28;20082;-79
2022/04/26 12:39:43;;;;;;;5.03;2.95;;;10.40;99.90;;;;;;4993139;28;20070;-78
2022/04/26 12:42:12;;;;;;;6.68;2.90;;;10.30;99.90;;;;;;4993637;28;20141;-79
2022/04/26 12:44:51;;;;;;;4.88;2.67;;;10.50;99.90;;;;;;4996732;28;20050;-80
2022/04/26 12:50:48;;;;;;;6.53;2.80;;;10.50;99.90;;;;;;4974510;28;20078;-80
2022/04/26 12:53:24;;;;;;;5.72;2.70;;;10.50;99.90;;;;;;4973817;28;20063;-79
2022/04/26 12:55:53;;;;;;;5.28;3.35;;;10.50;99.90;;;;;;4973939;28;20054;-79
2022/04/26 12:58:36;;;;;;;6.47;3.60;;;10.50;99.90;;;;;;4973664;28;20555;-78
2022/04/26 13:01:05;;;;;;;6.68;3.40;;;10.50;99.90;;;;;;4973595;28;20149;-77
2022/04/26 13:03:35;;;;;;;8.50;4.50;;;10.50;99.90;;;;;;4973949;28;20078;-79
2022/04/26 13:06:08;;;;;;;7.90;4.75;;;10.70;99.90;;;;;;4974479;28;20051;-80
2022/04/26 13:08:43;;;;;;;8.13;5.55;;;10.30;99.90;;;;;;4975764;28;20058;-79
2022/04/26 13:11:11;;;;;;;8.73;5.72;;;10.40;99.90;;;;;;4973820;28;20055;-78
2022/04/26 13:13:40;;;;;;;7.95;5.47;;;10.50;99.90;;;;;;4973791;28;20050;-81
2022/04/26 13:16:08;;;;;;;8.25;5.50;;;10.60;99.90;;;;;;4986641;28;20117;-81
2022/04/26 13:18:41;;;;;;;7.25;4.85;;;10.80;99.90;;;;;;4992239;28;20141;-79
2022/04/26 13:21:08;;;;;;;9.30;6.55;;;11.20;99.90;;;;;;4976020;28;20054;-80
2022/04/26 13:23:38;;;;;;;8.65;6.00;;;11.00;99.90;;;;;;4992734;28;20054;-78
2022/04/26 13:26:07;;;;;;;10.75;6.40;;;10.90;99.90;;;;;;4991194;28;20146;-77
2022/04/26 13:28:34;;;;;;;10.68;6.75;;;10.90;99.90;;;;;;4992129;28;20593;-80
2022/04/26 13:31:02;;;;;;;8.93;5.78;;;10.90;99.90;;;;;;4992498;28;20082;-81
2022/04/26 13:33:30;;;;;;;8.38;5.28;;;11.00;99.90;;;;;;4975286;28;20133;-81
2022/04/26 13:35:58;;;;;;;7.22;5.35;;;11.60;99.90;;;;;;4992666;28;20058;-81
2022/04/26 13:38:25;;;;;;;9.50;5.40;;;11.50;99.90;;;;;;4992191;28;20563;-79
2022/04/26 13:40:54;;;;;;;8.48;5.18;;;11.60;99.90;;;;;;4990162;28;20133;-78
2022/04/26 13:43:23;;;;;;;8.52;5.22;;;12.20;99.90;;;;;;4993008;28;20042;-79
2022/04/26 13:45:51;;;;;;;5.85;4.20;;;12.50;99.90;;;;;;4992986;28;20050;-79
2022/04/26 13:48:18;;;;;;;7.10;3.88;;;13.20;99.90;;;;;;4991961;28;20137;-81
2022/04/26 13:50:45;;;;;;;7.40;4.55;;;13.60;99.90;;;;;;4992049;28;20089;-79
2022/04/26 13:53:14;;;;;;;5.68;3.92;;;13.80;99.90;;;;;;4991937;28;20133;-77
2022/04/26 13:55:42;;;;;;;7.82;4.03;;;13.80;97.90;;;;;;4991605;28;20054;-78
2022/04/26 13:58:10;;;;;;;6.70;3.97;;;14.10;98.50;;;;;;4990582;28;20081;-80
2022/04/26 14:00:38;;;;;;;4.78;3.13;;;14.80;98.20;;;;;;4991658;28;20057;-78
2022/04/26 14:03:06;;;;;;;5.03;3.30;;;14.40;98.40;;;;;;4991829;28;20133;-78
2022/04/26 14:05:34;;;;;;;5.22;3.63;;;14.40;99.10;;;;;;4991541;28;20141;-78
2022/04/26 14:08:02;;;;;;;5.15;3.05;;;14.20;98.10;;;;;;4991389;28;20205;-80
2022/04/26 14:10:31;;;;;;;5.03;3.08;;;14.20;98.40;;;;;;4991973;28;20046;-78
2022/04/26 14:12:59;;;;;;;4.47;2.75;;;15.10;98.20;;;;;;4991538;28;20058;-78
2022/04/26 14:23:42;;;;;;;5.60;3.60;;;14.40;94.40;;;;;;4991632;28;20411;-80
2022/04/26 14:26:11;;;;;;;5.10;2.92;;;13.50;94.80;;;;;;4991513;28;20046;-80
2022/04/26 14:28:38;;;;;;;5.70;3.05;;;13.50;94.30;;;;;;4990480;28;20086;-79
2022/04/26 14:31:05;;;;;;;5.07;3.10;;;13.40;94.60;;;;;;4992396;28;20109;-77
2022/04/26 14:33:33;;;;;;;4.88;2.80;;;13.30;95.60;;;;;;4991217;28;20218;-77
2022/04/26 14:36:01;;;;;;;5.10;3.00;;;13.00;95.00;;;;;;4991164;28;20073;-80
2022/04/26 14:38:29;;;;;;;4.93;2.90;;;12.60;96.20;;;;;;4991096;28;20141;-80
2022/04/26 14:40:56;;;;;;;4.55;3.03;;;12.40;96.60;;;;;;4989005;28;20050;-79
2022/04/26 14:43:24;;;;;;;5.70;3.45;;;12.40;97.80;;;;;;4990836;28;20085;-80
2022/04/26 14:45:54;;;;;;;6.15;3.30;;;12.30;99.10;;;;;;4990719;28;20057;-79
2022/04/26 14:48:24;;;;;;;5.65;2.97;;;12.10;98.60;;;;;;4991126;28;20054;-79
2022/04/26 14:50:51;;;;;;;6.05;3.22;;;12.40;99.60;;;;;;4990655;28;20511;-79
2022/04/26 14:53:19;;;;;;;6.00;3.10;;;12.30;98.40;;;;;;4991204;28;20146;-79
2022/04/26 14:55:47;;;;;;;5.47;3.33;;;12.10;98.90;;;;;;4987899;28;20488;-79
2022/04/26 14:58:14;;;;;;;5.40;3.45;;;12.10;99.30;;;;;;4986616;28;20055;-79
2022/04/26 15:00:43;;;;;;;4.68;2.90;;;12.10;98.60;;;;;;4990547;28;20136;-79
2022/04/26 15:03:10;;;;;;;4.30;2.60;;;12.20;97.20;;;;;;5007268;28;20529;-78
2022/04/26 15:05:38;;;;;;;5.25;2.83;;;12.00;96.30;;;;;;5008685;28;20050;-80
2022/04/26 15:10:56;;;;;;;4.00;2.67;;;14.30;93.50;;;;;;5003972;28;20061;-77
2022/04/26 15:18:54;;;;;;;4.68;2.30;;;16.00;78.30;;;;;;5004098;28;20068;-78
2022/04/26 15:21:23;;;;;;;3.42;2.00;;;15.70;76.40;;;;;;5007344;28;20050;-78
2022/04/26 15:23:53;;;;;;;3.28;1.80;;;15.40;80.60;;;;;;5008765;28;20454;-79
2022/04/26 15:26:22;;;;;;;3.97;1.52;;;14.70;84.30;;;;;;5008310;28;20054;-79
2022/04/26 15:28:51;;;;;;;4.03;1.92;;;14.70;83.10;;;;;;5009020;28;20068;-80
2022/04/26 15:31:20;;;;;;;4.60;2.00;;;14.30;83.30;;;;;;5006490;28;20050;-79
2022/04/26 15:33:54;;;;;;;3.88;2.45;;;14.20;85.50;;;;;;5007797;28;20053;-78
2022/04/26 15:36:23;;;;;;;4.55;2.40;;;13.70;84.40;;;;;;5009004;28;21053;-77
2022/04/26 15:38:58;;;;;;;3.40;2.20;;;13.50;88.60;;;;;;5010373;28;20054;-78
2022/04/26 15:41:32;;;;;;;4.20;2.00;;;13.70;88.40;;;;;;5010948;28;20069;-79
2022/04/26 15:44:05;;;;;;;3.92;2.15;;;15.00;85.20;;;;;;5014677;28;20426;-80
2022/04/26 15:46:33;;;;;;;3.53;1.88;;;15.70;82.80;;;;;;5014391;28;20601;-77
2022/04/26 15:49:02;;;;;;;3.13;1.88;;;16.30;78.50;;;;;;5014615;28;20120;-77
2022/04/26 15:51:30;;;;;;;3.58;1.90;;;15.50;78.60;;;;;;5014878;28;20057;-78
2022/04/26 15:54:02;;;;;;;3.35;1.75;;;15.20;79.80;;;;;;5014274;28;20397;-77
2022/04/26 15:56:29;;;;;;;3.83;1.95;;;15.20;80.00;;;;;;5014353;28;20061;-78
2022/04/26 15:58:56;;;;;;;3.33;2.08;;;14.50;82.60;;;;;;5014069;28;20566;-78
2022/04/26 16:01:26;;;;;;;3.20;1.90;;;13.90;84.50;;;;;;5014024;28;20503;-78
2022/04/26 16:03:55;;;;;;;3.42;2.15;;;13.80;85.50;;;;;;5013955;28;20503;-79
2022/04/26 16:06:22;;;;;;;3.88;2.35;;;13.20;88.50;;;;;;5013112;28;20056;-78
2022/04/26 16:08:49;;;;;;;4.13;2.20;;;13.20;90.20;;;;;;5011252;28;20128;-79
2022/04/26 16:22:19;;;;;;;4.25;2.58;;;12.60;95.10;;;;;;5014518;28;20124;-79
2022/04/26 16:24:46;;;;;;;4.68;3.20;;;12.40;96.30;;;;;;5012740;28;20045;-78
2022/04/26 16:27:13;;;;;;;4.82;3.17;;;12.20;98.10;;;;;;5013715;28;20455;-77
2022/04/26 16:29:41;;;;;;;4.90;3.30;;;12.30;98.20;;;;;;5013434;28;20104;-78
2022/04/26 16:32:08;;;;;;;5.28;3.40;;;12.00;98.20;;;;;;5012706;28;20141;-80
2022/04/26 16:34:37;;;;;;;4.97;3.20;;;11.90;98.90;;;;;;5013736;28;20084;-79
2022/04/26 16:37:04;;;;;;;7.30;3.85;;;11.90;99.40;;;;;;5013226;28;20046;-77
2022/04/26 16:39:36;;;;;;;6.60;3.85;;;11.70;99.90;;;;;;5009794;28;20046;-78
2022/04/26 16:42:04;;;;;;;5.50;3.35;;;11.30;99.90;;;;;;5002688;28;20101;-80
2022/04/26 16:44:33;;;;;;;6.50;3.78;;;11.40;99.90;;;;;;5011023;28;20064;-80
2022/04/26 16:47:00;;;;;;;7.03;4.05;;;11.00;99.90;;;;;;5011212;28;20068;-81
2022/04/26 16:49:27;;;;;;;6.90;3.50;;;10.90;99.90;;;;;;5010800;28;20047;-81
2022/04/26 16:51:58;;;;;;;4.82;3.05;;;10.40;99.90;;;;;;5012085;28;20058;-79
2022/04/26 16:54:25;;;;;;;5.53;3.00;;;10.90;99.90;;;;;;5008856;28;20042;-79
2022/04/26 16:56:52;;;;;;;5.53;3.03;;;11.60;99.90;;;;;;5011626;28;20061;-79
2022/04/26 16:59:20;;;;;;;4.88;2.95;;;12.40;99.90;;;;;;5009622;28;20212;-79
2022/04/26 17:01:48;;;;;;;4.95;3.10;;;13.20;99.90;;;;;;5000138;28;20145;-81
2022/04/26 17:04:16;;;;;;;4.82;2.85;;;13.40;99.90;;;;;;4991615;28;20404;-84
2022/04/26 17:06:43;;;;;;;5.00;3.00;;;13.60;99.90;;;;;;4992014;28;20137;-78
2022/04/26 17:09:12;;;;;;;5.20;3.15;;;13.70;99.90;;;;;;4990734;28;20057;-77
2022/04/26 17:11:45;;;;;;;6.32;4.00;;;13.70;99.90;;;;;;4984730;28;20058;-78
2022/04/26 17:14:13;;;;;;;17.15;9.48;;;13.70;99.90;;;;;;4990406;28;20445;-78
2022/04/26 17:16:43;;;;;;;9.20;5.45;;;13.50;99.90;;;;;;4991079;28;20054;-88
2022/04/26 17:19:12;;;;;;;6.05;3.40;;;13.40;99.90;;;;;;4994641;28;20057;-85
2022/04/26 17:21:39;;;;;;;5.78;3.00;;;13.50;99.90;;;;;;4988079;28;20095;-79
2022/04/26 17:25:13;;;;;;;4.40;2.50;;;13.50;99.90;;;;;;4974153;28;20065;-82
2022/04/26 17:26:57;;;;;;;4.60;2.70;;;13.20;99.90;;;;;;4973760;28;20555;-83
2022/04/26 17:29:25;;;;;;;3.63;2.30;;;12.90;99.90;;;;;;4988015;28;20046;-82
2022/04/26 17:31:54;;;;;;;4.82;2.03;;;12.80;99.90;;;;;;4961975;28;20046;-82
2022/04/26 17:34:23;;;;;;;3.92;2.40;;;12.70;99.90;;;;;;4986496;28;20057;-82
2022/04/26 17:36:51;;;;;;;3.83;2.20;;;12.60;99.90;;;;;;4989241;28;20046;-83
2022/04/26 17:39:20;;;;;;;5.82;2.83;;;12.40;99.90;;;;;;4983158;28;20046;-83
2022/04/26 17:41:49;;;;;;;4.85;2.65;;;12.10;99.90;;;;;;4969604;28;20432;-84
2022/04/26 17:44:18;;;;;;;4.05;2.75;;;11.90;99.90;;;;;;4981683;28;20503;-82
2022/04/26 17:46:45;;;;;;;4.45;2.70;;;12.00;99.90;;;;;;4990679;28;20415;-87
2022/04/26 17:49:12;;;;;;;4.20;2.70;;;12.00;99.90;;;;;;4968167;28;20046;-81
2022/04/26 17:51:39;;;;;;;5.22;2.75;;;12.00;99.90;;;;;;4989255;28;20050;-80
2022/04/26 17:56:50;;;;;;;4.90;3.10;;;11.90;99.90;;;;;;4985884;28;20069;-80
2022/04/26 17:59:19;;;;;;;5.82;3.05;;;11.60;99.90;;;;;;4989636;28;20050;-79
2022/04/26 18:01:46;;;;;;;5.20;3.10;;;11.50;99.90;;;;;;4987852;28;20097;-90
2022/04/26 18:04:13;;;;;;;5.38;3.45;;;11.50;99.90;;;;;;4974531;28;20065;-85
2022/04/26 18:06:41;;;;;;;5.13;3.58;;;11.40;99.90;;;;;;4986004;28;20061;-85
2022/04/26 18:09:08;;;;;;;6.57;3.20;;;11.40;99.90;;;;;;4979190;28;20076;-84
2022/04/26 18:11:35;;;;;;;5.10;3.15;;;11.40;99.90;;;;;;4998180;28;20042;-87
2022/04/26 18:14:03;;;;;;;6.03;3.22;;;11.30;99.90;;;;;;4993701;28;20138;-89
2022/04/26 18:16:31;;;;;;;6.45;3.72;;;11.10;99.90;;;;;;4953517;28;20046;-85
2022/04/26 18:19:03;;;;;;;6.35;3.97;;;11.20;99.90;;;;;;4977481;28;20077;-88
2022/04/26 18:21:34;;;;;;;5.47;3.92;;;11.00;99.90;;;;;;4996610;28;20047;-84
2022/04/26 18:24:02;;;;;;;6.63;3.55;;;10.90;99.90;;;;;;4982931;28;20042;-77
2022/04/26 18:26:29;;;;;;;5.30;3.60;;;10.80;99.90;;;;;;4988450;28;20056;-82
2022/04/26 18:28:59;;;;;;;4.85;3.00;;;10.70;99.90;;;;;;4988863;28;20133;-80
2022/04/26 18:31:29;;;;;;;4.70;3.00;;;10.90;99.90;;;;;;4986017;28;20046;-79
2022/04/26 18:33:58;;;;;;;4.97;3.20;;;10.70;99.90;;;;;;4988308;28;20415;-80
2022/04/26 18:36:25;;;;;;;6.57;3.53;;;10.70;99.90;;;;;;4989368;28;20112;-80
2022/04/26 18:38:55;;;;;;;5.88;3.50;;;10.70;99.90;;;;;;4990086;28;20142;-79
2022/04/26 18:41:25;;;;;;;5.50;3.35;;;10.40;99.90;;;;;;4985400;28;20055;-80
2022/04/26 18:43:55;;;;;;;5.15;3.53;;;10.50;99.90;;;;;;4988551;28;20157;-80
2022/04/26 18:46:23;;;;;;;6.20;3.70;;;10.60;99.90;;;;;;4991561;28;20054;-80